Time,TemperatureF,DewpointF,PressureIn,WindDirection,WindDirectionDegrees,WindSpeedMPH,WindSpeedGustMPH,Humidity,HourlyPrecipIn,Conditions,Clouds,dailyrainin,SoftwareType,DateUTC
2013-06-19 00:01:00,63.0,48.0,29.04,North,2,1.0,5.0,58,0.00,,,0.00,,2013-06-19 04:01:00,
2013-06-19 00:11:00,62.0,47.0,29.04,NNW,337,3.0,5.0,59,0.00,,,0.00,,2013-06-19 04:11:00,
2013-06-19 00:22:00,62.0,48.0,29.04,North,1,2.0,6.0,60,0.00,,,0.00,,2013-06-19 04:22:00,
2013-06-19 00:32:00,62.0,48.0,29.04,North,1,2.0,6.0,60,0.00,,,0.00,,2013-06-19 04:32:00,
2013-06-19 00:42:00,62.0,48.0,29.07,NW,323,1.0,5.0,60,0.00,,,0.00,,2013-06-19 04:42:00,
2013-06-19 00:53:00,62.0,48.0,29.07,NW,323,1.0,5.0,60,0.00,,,0.00,,2013-06-19 04:53:00,
2013-06-19 01:01:00,61.0,47.0,29.07,North,357,2.0,4.0,61,0.00,,,0.00,,2013-06-19 05:01:00,
2013-06-19 01:11:00,61.0,47.0,29.07,North,0,0.0,3.0,61,0.00,,,0.00,,2013-06-19 05:11:00,
2013-06-19 01:23:00,60.0,47.0,29.07,NNW,337,0.0,3.0,61,0.00,,,0.00,,2013-06-19 05:23:00,
2013-06-19 01:32:00,60.0,47.0,29.07,NNW,337,0.0,3.0,61,0.00,,,0.00,,2013-06-19 05:32:00,
2013-06-19 01:42:00,59.0,46.0,29.03,NNW,337,0.0,3.0,61,0.00,,,0.00,,2013-06-19 05:42:00,
2013-06-19 01:52:00,59.0,46.0,29.03,NNW,337,0.0,2.0,62,0.00,,,0.00,,2013-06-19 05:52:00,
2013-06-19 02:02:00,58.0,45.0,29.03,NNW,337,0.0,2.0,63,0.00,,,0.00,,2013-06-19 06:02:00,
2013-06-19 02:11:00,58.0,45.0,29.06,North,0,1.0,4.0,63,0.00,,,0.00,,2013-06-19 06:11:00,
2013-06-19 02:22:00,58.0,46.0,29.06,North,0,0.0,0.0,64,0.00,,,0.00,,2013-06-19 06:22:00,
2013-06-19 02:34:00,58.0,46.0,29.06,North,0,0.0,2.0,64,0.00,,,0.00,,2013-06-19 06:34:00,
2013-06-19 02:42:00,57.0,45.0,29.03,North,0,0.0,3.0,65,0.00,,,0.00,,2013-06-19 06:42:00,
2013-06-19 02:52:00,57.0,46.0,29.03,North,0,0.0,2.0,67,0.00,,,0.00,,2013-06-19 06:52:00,
2013-06-19 03:01:00,57.0,46.0,29.06,North,0,0.0,0.0,67,0.00,,,0.00,,2013-06-19 07:01:00,
2013-06-19 03:11:00,56.0,46.0,29.06,North,0,0.0,0.0,68,0.00,,,0.00,,2013-06-19 07:11:00,
2013-06-19 03:22:00,56.0,46.0,29.06,North,0,0.0,0.0,68,0.00,,,0.00,,2013-06-19 07:22:00,
2013-06-19 03:33:00,55.0,45.0,29.06,NNW,337,0.0,0.0,70,0.00,,,0.00,,2013-06-19 07:33:00,
2013-06-19 03:43:00,55.0,46.0,29.06,NNW,337,0.0,0.0,71,0.00,,,0.00,,2013-06-19 07:43:00,
2013-06-19 03:53:00,55.0,47.0,29.03,NNW,337,2.0,3.0,73,0.00,,,0.00,,2013-06-19 07:53:00,
2013-06-19 04:02:00,55.0,47.0,29.03,North,0,0.0,4.0,73,0.00,,,0.00,,2013-06-19 08:02:00,
2013-06-19 04:11:00,55.0,47.0,29.06,North,0,0.0,3.0,73,0.00,,,0.00,,2013-06-19 08:11:00,
2013-06-19 04:22:00,55.0,47.0,29.06,North,0,0.0,3.0,73,0.00,,,0.00,,2013-06-19 08:22:00,
2013-06-19 04:33:00,54.0,46.0,29.06,North,0,0.0,0.0,73,0.00,,,0.00,,2013-06-19 08:33:00,
2013-06-19 04:43:00,54.0,46.0,29.06,North,0,0.0,0.0,73,0.00,,,0.00,,2013-06-19 08:43:00,
2013-06-19 04:53:00,54.0,46.0,29.06,NW,315,1.0,3.0,75,0.00,,,0.00,,2013-06-19 08:53:00,
2013-06-19 05:02:00,54.0,46.0,29.06,NW,315,1.0,3.0,75,0.00,,,0.00,,2013-06-19 09:02:00,
2013-06-19 05:11:00,54.0,46.0,29.06,WNW,292,0.0,0.0,75,0.00,,,0.00,,2013-06-19 09:11:00,
2013-06-19 05:22:00,53.0,46.0,29.06,WNW,292,0.0,0.0,76,0.00,,,0.00,,2013-06-19 09:22:00,
2013-06-19 05:34:00,53.0,46.0,29.06,WNW,292,0.0,0.0,76,0.00,,,0.00,,2013-06-19 09:34:00,
2013-06-19 05:43:00,53.0,46.0,29.06,WNW,292,0.0,1.0,76,0.00,,,0.00,,2013-06-19 09:43:00,
2013-06-19 05:53:00,53.0,46.0,29.06,WNW,292,0.0,0.0,78,0.00,,,0.00,,2013-06-19 09:53:00,
2013-06-19 06:02:00,53.0,46.0,29.06,WNW,292,0.0,0.0,78,0.00,,,0.00,,2013-06-19 10:02:00,
2013-06-19 06:12:00,52.0,45.0,29.06,WNW,292,0.0,0.0,78,0.00,,,0.00,,2013-06-19 10:12:00,
2013-06-19 06:22:00,53.0,47.0,29.06,NNW,337,0.0,2.0,79,0.00,,,0.00,,2013-06-19 10:22:00,
2013-06-19 06:33:00,53.0,47.0,29.09,North,0,1.0,3.0,80,0.00,,,0.00,,2013-06-19 10:33:00,
2013-06-19 06:42:00,54.0,48.0,29.09,North,0,2.0,4.0,80,0.00,,,0.00,,2013-06-19 10:42:00,
2013-06-19 06:52:00,54.0,48.0,29.09,North,0,2.0,4.0,80,0.00,,,0.00,,2013-06-19 10:52:00,
2013-06-19 07:02:00,56.0,48.0,29.09,North,0,1.0,3.0,74,0.00,,,0.00,,2013-06-19 11:02:00,
2013-06-19 07:11:00,57.0,48.0,29.09,North,0,1.0,3.0,72,0.00,,,0.00,,2013-06-19 11:11:00,
2013-06-19 07:22:00,58.0,48.0,29.09,WNW,292,1.0,3.0,69,0.00,,,0.00,,2013-06-19 11:22:00,
2013-06-19 07:33:00,58.0,48.0,29.09,WNW,292,1.0,3.0,69,0.00,,,0.00,,2013-06-19 11:33:00,
2013-06-19 07:43:00,59.0,47.0,29.09,ESE,112,1.0,6.0,65,0.00,,,0.00,,2013-06-19 11:43:00,
2013-06-19 07:54:00,60.0,47.0,29.09,ENE,59,2.0,4.0,62,0.00,,,0.00,,2013-06-19 11:54:00,
2013-06-19 08:02:00,61.0,46.0,29.12,East,94,3.0,5.0,58,0.00,,,0.00,,2013-06-19 12:02:00,
2013-06-19 08:12:00,61.0,45.0,29.12,NNW,344,2.0,5.0,56,0.00,,,0.00,,2013-06-19 12:12:00,
2013-06-19 08:22:00,62.0,45.0,29.12,NNE,31,2.0,4.0,53,0.00,,,0.00,,2013-06-19 12:22:00,
2013-06-19 08:34:00,62.0,45.0,29.12,East,90,2.0,7.0,53,0.00,,,0.00,,2013-06-19 12:34:00,
2013-06-19 08:44:00,63.0,45.0,29.12,East,98,2.0,5.0,51,0.00,,,0.00,,2013-06-19 12:44:00,
2013-06-19 08:53:00,64.0,44.0,29.12,North,9,3.0,6.0,48,0.00,,,0.00,,2013-06-19 12:53:00,
2013-06-19 09:02:00,65.0,44.0,29.12,NE,40,3.0,7.0,47,0.00,,,0.00,,2013-06-19 13:02:00,
2013-06-19 09:12:00,66.0,45.0,29.12,East,88,4.0,6.0,46,0.00,,,0.00,,2013-06-19 13:12:00,
2013-06-19 09:22:00,66.0,43.0,29.15,NE,41,3.0,6.0,44,0.00,,,0.00,,2013-06-19 13:22:00,
2013-06-19 09:33:00,67.0,44.0,29.15,East,90,3.0,8.0,44,0.00,,,0.00,,2013-06-19 13:33:00,
2013-06-19 09:53:00,69.0,44.0,29.15,NE,54,3.0,6.0,40,0.00,,,0.00,,2013-06-19 13:53:00,
2013-06-19 10:02:00,69.0,44.0,29.15,NE,54,3.0,6.0,40,0.00,,,0.00,,2013-06-19 14:02:00,
2013-06-19 10:22:00,70.0,40.0,29.15,East,97,6.0,8.0,34,0.00,,,0.00,,2013-06-19 14:22:00,
2013-06-19 10:44:00,71.0,42.0,29.15,East,88,5.0,8.0,35,0.00,,,0.00,,2013-06-19 14:44:00,
2013-06-19 10:52:00,71.0,42.0,29.15,East,88,5.0,8.0,35,0.00,,,0.00,,2013-06-19 14:52:00,
2013-06-19 11:02:00,73.0,42.0,29.15,ENE,70,5.0,9.0,33,0.00,,,0.00,,2013-06-19 15:02:00,
2013-06-19 11:11:00,75.0,43.0,29.15,NE,53,2.0,6.0,32,0.00,,,0.00,,2013-06-19 15:11:00,
2013-06-19 11:22:00,74.0,41.0,29.15,East,87,5.0,10.0,30,0.00,,,0.00,,2013-06-19 15:22:00,
2013-06-19 11:53:00,76.0,43.0,29.15,ESE,120,2.0,7.0,31,0.00,,,0.00,,2013-06-19 15:53:00,
2013-06-19 13:02:00,78.0,37.0,29.15,ENE,72,4.0,8.0,23,0.00,,,0.00,,2013-06-19 17:02:00,
2013-06-19 13:12:00,79.0,38.0,29.15,NE,35,3.0,7.0,23,0.00,,,0.00,,2013-06-19 17:12:00,
2013-06-19 13:22:00,79.0,37.0,29.15,ESE,104,3.0,10.0,22,0.00,,,0.00,,2013-06-19 17:22:00,
2013-06-19 13:34:00,79.0,36.0,29.15,East,89,4.0,8.0,21,0.00,,,0.00,,2013-06-19 17:34:00,
2013-06-19 14:02:00,82.0,39.0,29.15,East,82,3.0,5.0,22,0.00,,,0.00,,2013-06-19 18:02:00,
2013-06-19 14:44:00,82.0,37.0,29.15,ESE,104,5.0,7.0,20,0.00,,,0.00,,2013-06-19 18:44:00,
2013-06-19 15:12:00,83.0,36.0,29.15,WSW,247,1.0,8.0,19,0.00,,,0.00,,2013-06-19 19:12:00,
2013-06-19 15:22:00,83.0,36.0,29.15,NE,52,3.0,8.0,19,0.00,,,0.00,,2013-06-19 19:22:00,
2013-06-19 15:32:00,84.0,37.0,29.15,East,99,3.0,5.0,19,0.00,,,0.00,,2013-06-19 19:32:00,
2013-06-19 16:02:00,83.0,36.0,29.15,SSE,160,2.0,7.0,19,0.00,,,0.00,,2013-06-19 20:02:00,
2013-06-19 16:11:00,84.0,37.0,29.15,East,94,4.0,7.0,19,0.00,,,0.00,,2013-06-19 20:11:00,
2013-06-19 16:22:00,83.0,36.0,29.15,SE,143,3.0,8.0,19,0.00,,,0.00,,2013-06-19 20:22:00,
2013-06-19 16:33:00,84.0,37.0,29.15,East,90,3.0,6.0,19,0.00,,,0.00,,2013-06-19 20:33:00,
2013-06-19 18:11:00,82.0,36.0,29.12,East,95,4.0,7.0,19,0.00,,,0.00,,2013-06-19 22:11:00,
2013-06-19 18:22:00,82.0,36.0,29.12,East,90,1.0,4.0,19,0.00,,,0.00,,2013-06-19 22:22:00,
2013-06-19 18:53:00,81.0,35.0,29.12,ESE,108,1.0,5.0,19,0.00,,,0.00,,2013-06-19 22:53:00,
2013-06-19 20:01:00,78.0,35.0,29.12,East,90,0.0,4.0,21,0.00,,,0.00,,2013-06-20 00:01:00,
2013-06-19 22:52:00,61.0,44.0,29.18,NNE,22,0.0,0.0,54,0.00,,,0.00,,2013-06-20 02:52:00,
2013-06-19 23:02:00,61.0,45.0,29.18,NNE,22,0.0,0.0,56,0.00,,,0.00,,2013-06-20 03:02:00,
2013-06-19 23:11:00,60.0,45.0,29.18,NNE,22,0.0,0.0,57,0.00,,,0.00,,2013-06-20 03:11:00,
2013-06-19 23:22:00,60.0,47.0,29.18,NNE,22,1.0,3.0,61,0.00,,,0.00,,2013-06-20 03:22:00,
2013-06-19 23:33:00,59.0,46.0,29.18,NNE,22,0.0,2.0,61,0.00,,,0.00,,2013-06-20 03:33:00,
2013-06-19 23:43:00,59.0,48.0,29.18,NNE,17,1.0,4.0,66,0.00,,,0.00,,2013-06-20 03:43:00,
2013-06-19 23:53:00,59.0,48.0,29.18,North,0,1.0,4.0,68,0.00,,,0.00,,2013-06-20 03:53:00,